sensor_id;sensor_type;location;lat;lon;timestamp;P1;durP1;ratioP1;P2;durP2;ratioP2
31760;SDS011;18335;51.486;7.562;2022-07-23T00:00:03;19.83;;;9.93;;
31760;SDS011;18335;51.486;7.562;2022-07-23T00:02:31;17.13;;;9.48;;
31760;SDS011;18335;51.486;7.562;2022-07-23T00:04:58;17.52;;;8.63;;
31760;SDS011;18335;51.486;7.562;2022-07-23T00:07:26;17.08;;;8.93;;
31760;SDS011;18335;51.486;7.562;2022-07-23T00:09:53;15.90;;;8.63;;
31760;SDS011;18335;51.486;7.562;2022-07-23T00:12:20;17.25;;;9.35;;
31760;SDS011;18335;51.486;7.562;2022-07-23T00:14:47;18.02;;;9.27;;
31760;SDS011;18335;51.486;7.562;2022-07-23T00:17:14;20.90;;;10.32;;
31760;SDS011;18335;51.486;7.562;2022-07-23T00:19:40;28.73;;;10.77;;
31760;SDS011;18335;51.486;7.562;2022-07-23T00:22:07;17.30;;;9.75;;
31760;SDS011;18335;51.486;7.562;2022-07-23T00:24:35;18.52;;;9.30;;
31760;SDS011;18335;51.486;7.562;2022-07-23T00:27:02;17.67;;;9.38;;
31760;SDS011;18335;51.486;7.562;2022-07-23T00:29:29;16.20;;;9.48;;
31760;SDS011;18335;51.486;7.562;2022-07-23T00:31:56;19.58;;;11.38;;
31760;SDS011;18335;51.486;7.562;2022-07-23T00:34:22;22.67;;;10.55;;
31760;SDS011;18335;51.486;7.562;2022-07-23T00:36:49;18.02;;;9.38;;
31760;SDS011;18335;51.486;7.562;2022-07-23T00:39:19;21.23;;;10.32;;
31760;SDS011;18335;51.486;7.562;2022-07-23T00:41:47;22.27;;;10.55;;
31760;SDS011;18335;51.486;7.562;2022-07-23T00:44:16;20.67;;;10.45;;
31760;SDS011;18335;51.486;7.562;2022-07-23T00:46:47;19.58;;;10.68;;
31760;SDS011;18335;51.486;7.562;2022-07-23T00:49:18;19.55;;;10.60;;
31760;SDS011;18335;51.486;7.562;2022-07-23T00:51:45;18.95;;;11.20;;
31760;SDS011;18335;51.486;7.562;2022-07-23T00:54:13;19.48;;;10.80;;
31760;SDS011;18335;51.486;7.562;2022-07-23T00:56:40;20.48;;;11.35;;
31760;SDS011;18335;51.486;7.562;2022-07-23T00:59:10;20.77;;;11.57;;
31760;SDS011;18335;51.486;7.562;2022-07-23T01:01:37;19.52;;;11.77;;
31760;SDS011;18335;51.486;7.562;2022-07-23T01:04:05;20.40;;;11.73;;
31760;SDS011;18335;51.486;7.562;2022-07-23T01:06:32;21.00;;;12.13;;
31760;SDS011;18335;51.486;7.562;2022-07-23T01:09:02;23.80;;;11.35;;
31760;SDS011;18335;51.486;7.562;2022-07-23T01:11:30;19.20;;;11.27;;
31760;SDS011;18335;51.486;7.562;2022-07-23T01:13:59;19.83;;;11.23;;
31760;SDS011;18335;51.486;7.562;2022-07-23T01:16:27;19.95;;;12.20;;
31760;SDS011;18335;51.486;7.562;2022-07-23T01:18:54;19.45;;;10.45;;
31760;SDS011;18335;51.486;7.562;2022-07-23T01:21:20;22.95;;;12.82;;
31760;SDS011;18335;51.486;7.562;2022-07-23T01:23:49;19.33;;;11.48;;
31760;SDS011;18335;51.486;7.562;2022-07-23T01:26:15;20.70;;;12.38;;
31760;SDS011;18335;51.486;7.562;2022-07-23T01:28:43;21.48;;;12.10;;
31760;SDS011;18335;51.486;7.562;2022-07-23T01:31:09;18.80;;;10.88;;
31760;SDS011;18335;51.486;7.562;2022-07-23T01:33:36;20.65;;;11.73;;
31760;SDS011;18335;51.486;7.562;2022-07-23T01:36:03;19.85;;;11.23;;
31760;SDS011;18335;51.486;7.562;2022-07-23T01:38:30;17.63;;;12.02;;
31760;SDS011;18335;51.486;7.562;2022-07-23T01:40:58;17.92;;;10.70;;
31760;SDS011;18335;51.486;7.562;2022-07-23T01:43:29;17.50;;;11.93;;
31760;SDS011;18335;51.486;7.562;2022-07-23T01:45:56;19.85;;;12.20;;
31760;SDS011;18335;51.486;7.562;2022-07-23T01:48:26;18.75;;;12.50;;
31760;SDS011;18335;51.486;7.562;2022-07-23T01:51:12;20.45;;;13.30;;
31760;SDS011;18335;51.486;7.562;2022-07-23T01:53:49;21.00;;;12.85;;
31760;SDS011;18335;51.486;7.562;2022-07-23T01:56:17;21.63;;;13.65;;
31760;SDS011;18335;51.486;7.562;2022-07-23T01:58:46;21.75;;;13.52;;
31760;SDS011;18335;51.486;7.562;2022-07-23T02:01:13;20.15;;;13.20;;
31760;SDS011;18335;51.486;7.562;2022-07-23T02:03:40;22.73;;;13.45;;
31760;SDS011;18335;51.486;7.562;2022-07-23T02:06:08;20.48;;;12.43;;
31760;SDS011;18335;51.486;7.562;2022-07-23T02:08:35;22.60;;;12.63;;
31760;SDS011;18335;51.486;7.562;2022-07-23T02:11:02;21.75;;;13.35;;
31760;SDS011;18335;51.486;7.562;2022-07-23T02:13:30;22.50;;;12.85;;
31760;SDS011;18335;51.486;7.562;2022-07-23T02:15:57;19.30;;;14.23;;
31760;SDS011;18335;51.486;7.562;2022-07-23T02:18:23;20.85;;;13.18;;
31760;SDS011;18335;51.486;7.562;2022-07-23T02:20:51;19.77;;;13.13;;
31760;SDS011;18335;51.486;7.562;2022-07-23T02:23:17;22.70;;;13.30;;
31760;SDS011;18335;51.486;7.562;2022-07-23T02:25:44;23.77;;;14.05;;
31760;SDS011;18335;51.486;7.562;2022-07-23T02:28:11;24.08;;;14.40;;
31760;SDS011;18335;51.486;7.562;2022-07-23T02:30:41;19.50;;;12.85;;
31760;SDS011;18335;51.486;7.562;2022-07-23T02:33:09;21.55;;;14.13;;
31760;SDS011;18335;51.486;7.562;2022-07-23T02:35:37;26.48;;;17.02;;
31760;SDS011;18335;51.486;7.562;2022-07-23T02:38:05;21.38;;;12.85;;
31760;SDS011;18335;51.486;7.562;2022-07-23T02:40:32;19.40;;;13.18;;
31760;SDS011;18335;51.486;7.562;2022-07-23T02:42:59;20.90;;;13.68;;
31760;SDS011;18335;51.486;7.562;2022-07-23T02:45:27;22.42;;;13.48;;
31760;SDS011;18335;51.486;7.562;2022-07-23T02:47:55;25.00;;;13.35;;
31760;SDS011;18335;51.486;7.562;2022-07-23T02:50:22;19.80;;;13.30;;
31760;SDS011;18335;51.486;7.562;2022-07-23T02:52:52;18.70;;;11.98;;
31760;SDS011;18335;51.486;7.562;2022-07-23T02:55:19;20.60;;;12.63;;
31760;SDS011;18335;51.486;7.562;2022-07-23T02:57:45;18.85;;;13.18;;
31760;SDS011;18335;51.486;7.562;2022-07-23T03:00:12;19.25;;;12.70;;
31760;SDS011;18335;51.486;7.562;2022-07-23T03:02:40;20.58;;;13.98;;
31760;SDS011;18335;51.486;7.562;2022-07-23T03:05:08;21.27;;;13.60;;
31760;SDS011;18335;51.486;7.562;2022-07-23T03:07:36;22.63;;;14.10;;
31760;SDS011;18335;51.486;7.562;2022-07-23T03:10:04;22.90;;;14.18;;
31760;SDS011;18335;51.486;7.562;2022-07-23T03:12:31;18.65;;;13.68;;
31760;SDS011;18335;51.486;7.562;2022-07-23T03:14:57;19.67;;;12.55;;
31760;SDS011;18335;51.486;7.562;2022-07-23T03:17:26;18.35;;;12.27;;
31760;SDS011;18335;51.486;7.562;2022-07-23T03:19:53;21.80;;;13.43;;
31760;SDS011;18335;51.486;7.562;2022-07-23T03:22:21;20.77;;;14.10;;
31760;SDS011;18335;51.486;7.562;2022-07-23T03:24:48;17.85;;;12.90;;
31760;SDS011;18335;51.486;7.562;2022-07-23T03:27:27;20.25;;;12.05;;
31760;SDS011;18335;51.486;7.562;2022-07-23T03:29:55;18.73;;;12.60;;
31760;SDS011;18335;51.486;7.562;2022-07-23T03:32:24;19.13;;;12.68;;
31760;SDS011;18335;51.486;7.562;2022-07-23T03:34:51;14.75;;;10.20;;
31760;SDS011;18335;51.486;7.562;2022-07-23T03:37:18;18.08;;;11.55;;
31760;SDS011;18335;51.486;7.562;2022-07-23T03:39:48;17.75;;;12.85;;
31760;SDS011;18335;51.486;7.562;2022-07-23T03:42:14;19.50;;;12.98;;
31760;SDS011;18335;51.486;7.562;2022-07-23T03:44:44;19.40;;;12.85;;
31760;SDS011;18335;51.486;7.562;2022-07-23T03:47:11;18.77;;;12.45;;
31760;SDS011;18335;51.486;7.562;2022-07-23T03:49:38;18.52;;;12.75;;
31760;SDS011;18335;51.486;7.562;2022-07-23T03:52:05;18.67;;;13.02;;
31760;SDS011;18335;51.486;7.562;2022-07-23T03:54:32;18.35;;;12.50;;
31760;SDS011;18335;51.486;7.562;2022-07-23T03:57:00;18.10;;;11.35;;
31760;SDS011;18335;51.486;7.562;2022-07-23T03:59:28;17.33;;;12.02;;
31760;SDS011;18335;51.486;7.562;2022-07-23T04:01:54;18.52;;;11.77;;
31760;SDS011;18335;51.486;7.562;2022-07-23T04:04:21;21.10;;;12.05;;
31760;SDS011;18335;51.486;7.562;2022-07-23T04:06:48;19.92;;;11.93;;
31760;SDS011;18335;51.486;7.562;2022-07-23T04:09:15;21.98;;;12.95;;
31760;SDS011;18335;51.486;7.562;2022-07-23T04:11:41;18.90;;;11.40;;
31760;SDS011;18335;51.486;7.562;2022-07-23T04:14:10;20.27;;;10.77;;
31760;SDS011;18335;51.486;7.562;2022-07-23T04:16:37;20.75;;;11.77;;
31760;SDS011;18335;51.486;7.562;2022-07-23T04:19:04;21.38;;;12.60;;
31760;SDS011;18335;51.486;7.562;2022-07-23T04:21:37;19.65;;;12.52;;
31760;SDS011;18335;51.486;7.562;2022-07-23T04:24:04;19.15;;;12.35;;
31760;SDS011;18335;51.486;7.562;2022-07-23T04:26:31;17.27;;;11.68;;
31760;SDS011;18335;51.486;7.562;2022-07-23T04:28:57;17.65;;;11.60;;
31760;SDS011;18335;51.486;7.562;2022-07-23T04:31:25;22.48;;;12.95;;
31760;SDS011;18335;51.486;7.562;2022-07-23T04:33:52;22.52;;;12.50;;
31760;SDS011;18335;51.486;7.562;2022-07-23T04:36:19;21.35;;;15.20;;
31760;SDS011;18335;51.486;7.562;2022-07-23T04:38:46;24.08;;;15.65;;
31760;SDS011;18335;51.486;7.562;2022-07-23T04:41:13;32.38;;;17.30;;
31760;SDS011;18335;51.486;7.562;2022-07-23T04:43:40;29.67;;;18.50;;
31760;SDS011;18335;51.486;7.562;2022-07-23T04:46:06;30.80;;;17.60;;
31760;SDS011;18335;51.486;7.562;2022-07-23T04:48:43;25.80;;;17.63;;
31760;SDS011;18335;51.486;7.562;2022-07-23T04:51:09;53.55;;;18.42;;
31760;SDS011;18335;51.486;7.562;2022-07-23T04:53:36;33.50;;;18.52;;
31760;SDS011;18335;51.486;7.562;2022-07-23T04:56:04;33.90;;;16.85;;
31760;SDS011;18335;51.486;7.562;2022-07-23T04:58:31;29.00;;;16.83;;
31760;SDS011;18335;51.486;7.562;2022-07-23T05:00:58;38.85;;;16.98;;
31760;SDS011;18335;51.486;7.562;2022-07-23T05:03:26;32.58;;;17.38;;
31760;SDS011;18335;51.486;7.562;2022-07-23T05:05:54;36.13;;;19.20;;
31760;SDS011;18335;51.486;7.562;2022-07-23T05:08:21;33.25;;;17.38;;
31760;SDS011;18335;51.486;7.562;2022-07-23T05:10:51;39.33;;;18.40;;
31760;SDS011;18335;51.486;7.562;2022-07-23T05:13:19;34.53;;;18.85;;
31760;SDS011;18335;51.486;7.562;2022-07-23T05:15:45;32.97;;;20.00;;
31760;SDS011;18335;51.486;7.562;2022-07-23T05:18:12;36.65;;;19.33;;
31760;SDS011;18335;51.486;7.562;2022-07-23T05:20:40;29.50;;;19.13;;
31760;SDS011;18335;51.486;7.562;2022-07-23T05:23:09;54.65;;;20.33;;
31760;SDS011;18335;51.486;7.562;2022-07-23T05:25:35;30.48;;;19.10;;
31760;SDS011;18335;51.486;7.562;2022-07-23T05:28:02;30.33;;;19.13;;
31760;SDS011;18335;51.486;7.562;2022-07-23T05:30:30;56.25;;;21.48;;
31760;SDS011;18335;51.486;7.562;2022-07-23T05:33:00;48.58;;;20.08;;
31760;SDS011;18335;51.486;7.562;2022-07-23T05:35:27;33.83;;;21.42;;
31760;SDS011;18335;51.486;7.562;2022-07-23T05:38:14;38.67;;;18.63;;
31760;SDS011;18335;51.486;7.562;2022-07-23T05:40:41;52.83;;;20.05;;
31760;SDS011;18335;51.486;7.562;2022-07-23T05:43:08;37.85;;;19.52;;
31760;SDS011;18335;51.486;7.562;2022-07-23T05:45:35;32.22;;;20.83;;
31760;SDS011;18335;51.486;7.562;2022-07-23T05:48:01;27.42;;;19.42;;
31760;SDS011;18335;51.486;7.562;2022-07-23T05:50:35;34.85;;;20.00;;
31760;SDS011;18335;51.486;7.562;2022-07-23T05:53:11;40.03;;;21.90;;
31760;SDS011;18335;51.486;7.562;2022-07-23T05:56:03;32.17;;;21.77;;
31760;SDS011;18335;51.486;7.562;2022-07-23T05:58:31;35.97;;;21.25;;
31760;SDS011;18335;51.486;7.562;2022-07-23T06:00:58;37.03;;;19.42;;
31760;SDS011;18335;51.486;7.562;2022-07-23T06:03:28;34.17;;;21.10;;
31760;SDS011;18335;51.486;7.562;2022-07-23T06:05:55;35.05;;;20.88;;
31760;SDS011;18335;51.486;7.562;2022-07-23T06:08:21;31.67;;;21.13;;
31760;SDS011;18335;51.486;7.562;2022-07-23T06:10:48;36.28;;;20.42;;
31760;SDS011;18335;51.486;7.562;2022-07-23T06:13:18;36.50;;;22.30;;
31760;SDS011;18335;51.486;7.562;2022-07-23T06:15:45;38.03;;;20.58;;
31760;SDS011;18335;51.486;7.562;2022-07-23T06:18:12;33.47;;;19.30;;
31760;SDS011;18335;51.486;7.562;2022-07-23T06:20:39;32.55;;;21.45;;
31760;SDS011;18335;51.486;7.562;2022-07-23T06:23:06;30.50;;;22.27;;
31760;SDS011;18335;51.486;7.562;2022-07-23T06:25:32;32.15;;;22.00;;
31760;SDS011;18335;51.486;7.562;2022-07-23T06:27:59;50.50;;;26.63;;
31760;SDS011;18335;51.486;7.562;2022-07-23T06:30:27;32.38;;;22.17;;
31760;SDS011;18335;51.486;7.562;2022-07-23T06:32:54;37.70;;;23.05;;
31760;SDS011;18335;51.486;7.562;2022-07-23T06:35:21;29.88;;;22.05;;
31760;SDS011;18335;51.486;7.562;2022-07-23T06:37:47;29.42;;;21.20;;
31760;SDS011;18335;51.486;7.562;2022-07-23T06:40:15;31.35;;;21.58;;
31760;SDS011;18335;51.486;7.562;2022-07-23T06:42:41;36.08;;;22.65;;
31760;SDS011;18335;51.486;7.562;2022-07-23T06:45:15;30.80;;;22.45;;
31760;SDS011;18335;51.486;7.562;2022-07-23T06:47:43;35.05;;;23.90;;
31760;SDS011;18335;51.486;7.562;2022-07-23T06:50:10;34.35;;;23.13;;
31760;SDS011;18335;51.486;7.562;2022-07-23T06:52:37;34.22;;;23.40;;
31760;SDS011;18335;51.486;7.562;2022-07-23T06:55:05;32.15;;;22.73;;
31760;SDS011;18335;51.486;7.562;2022-07-23T06:57:32;37.17;;;25.02;;
31760;SDS011;18335;51.486;7.562;2022-07-23T06:59:59;37.80;;;25.40;;
31760;SDS011;18335;51.486;7.562;2022-07-23T07:02:25;35.35;;;23.85;;
31760;SDS011;18335;51.486;7.562;2022-07-23T07:04:55;34.08;;;21.13;;
31760;SDS011;18335;51.486;7.562;2022-07-23T07:07:22;35.83;;;25.02;;
31760;SDS011;18335;51.486;7.562;2022-07-23T07:09:49;43.63;;;28.73;;
31760;SDS011;18335;51.486;7.562;2022-07-23T07:12:16;34.80;;;24.05;;
31760;SDS011;18335;51.486;7.562;2022-07-23T07:14:42;49.70;;;34.20;;
31760;SDS011;18335;51.486;7.562;2022-07-23T07:17:09;50.58;;;35.97;;
31760;SDS011;18335;51.486;7.562;2022-07-23T07:19:36;53.45;;;38.50;;
31760;SDS011;18335;51.486;7.562;2022-07-23T07:22:05;55.42;;;41.22;;
31760;SDS011;18335;51.486;7.562;2022-07-23T07:24:32;55.95;;;40.72;;
31760;SDS011;18335;51.486;7.562;2022-07-23T07:26:58;58.97;;;42.75;;
31760;SDS011;18335;51.486;7.562;2022-07-23T07:29:25;55.08;;;39.78;;
31760;SDS011;18335;51.486;7.562;2022-07-23T07:31:53;39.85;;;28.38;;
31760;SDS011;18335;51.486;7.562;2022-07-23T07:34:20;53.78;;;37.95;;
31760;SDS011;18335;51.486;7.562;2022-07-23T07:36:46;48.97;;;34.70;;
31760;SDS011;18335;51.486;7.562;2022-07-23T07:39:14;49.35;;;37.80;;
31760;SDS011;18335;51.486;7.562;2022-07-23T07:41:41;54.88;;;41.38;;
31760;SDS011;18335;51.486;7.562;2022-07-23T07:44:08;55.72;;;41.45;;
31760;SDS011;18335;51.486;7.562;2022-07-23T07:46:35;54.33;;;39.08;;
31760;SDS011;18335;51.486;7.562;2022-07-23T07:49:01;50.28;;;37.58;;
31760;SDS011;18335;51.486;7.562;2022-07-23T07:51:28;53.47;;;39.53;;
31760;SDS011;18335;51.486;7.562;2022-07-23T07:53:55;46.13;;;36.40;;
31760;SDS011;18335;51.486;7.562;2022-07-23T07:56:23;57.70;;;44.50;;
31760;SDS011;18335;51.486;7.562;2022-07-23T07:58:50;44.15;;;34.83;;
31760;SDS011;18335;51.486;7.562;2022-07-23T08:01:17;51.90;;;42.45;;
31760;SDS011;18335;51.486;7.562;2022-07-23T08:03:44;55.42;;;41.20;;
31760;SDS011;18335;51.486;7.562;2022-07-23T08:06:11;39.40;;;32.72;;
31760;SDS011;18335;51.486;7.562;2022-07-23T08:08:37;50.40;;;39.08;;
31760;SDS011;18335;51.486;7.562;2022-07-23T08:11:04;49.95;;;39.58;;
31760;SDS011;18335;51.486;7.562;2022-07-23T08:13:32;41.30;;;32.40;;
31760;SDS011;18335;51.486;7.562;2022-07-23T08:15:59;45.83;;;35.40;;
31760;SDS011;18335;51.486;7.562;2022-07-23T08:18:26;49.80;;;38.45;;
31760;SDS011;18335;51.486;7.562;2022-07-23T08:20:53;49.80;;;36.97;;
31760;SDS011;18335;51.486;7.562;2022-07-23T08:23:20;44.05;;;35.50;;
31760;SDS011;18335;51.486;7.562;2022-07-23T08:25:47;48.15;;;36.75;;
31760;SDS011;18335;51.486;7.562;2022-07-23T08:28:14;54.33;;;40.05;;
31760;SDS011;18335;51.486;7.562;2022-07-23T08:30:44;46.53;;;36.85;;
31760;SDS011;18335;51.486;7.562;2022-07-23T08:33:11;49.85;;;39.10;;
31760;SDS011;18335;51.486;7.562;2022-07-23T08:35:40;48.42;;;38.70;;
31760;SDS011;18335;51.486;7.562;2022-07-23T08:38:10;39.85;;;33.40;;
31760;SDS011;18335;51.486;7.562;2022-07-23T08:40:37;48.47;;;36.47;;
31760;SDS011;18335;51.486;7.562;2022-07-23T08:43:06;48.75;;;38.10;;
31760;SDS011;18335;51.486;7.562;2022-07-23T08:45:35;43.17;;;36.08;;
31760;SDS011;18335;51.486;7.562;2022-07-23T08:48:05;43.05;;;36.25;;
31760;SDS011;18335;51.486;7.562;2022-07-23T08:50:34;41.15;;;34.20;;
31760;SDS011;18335;51.486;7.562;2022-07-23T08:53:02;38.00;;;29.40;;
31760;SDS011;18335;51.486;7.562;2022-07-23T08:55:31;34.47;;;28.45;;
31760;SDS011;18335;51.486;7.562;2022-07-23T08:57:58;36.15;;;29.63;;
31760;SDS011;18335;51.486;7.562;2022-07-23T09:00:25;36.58;;;29.23;;
31760;SDS011;18335;51.486;7.562;2022-07-23T09:02:52;31.55;;;27.42;;
31760;SDS011;18335;51.486;7.562;2022-07-23T09:05:20;27.27;;;23.45;;
31760;SDS011;18335;51.486;7.562;2022-07-23T09:08:10;26.55;;;23.33;;
31760;SDS011;18335;51.486;7.562;2022-07-23T09:10:45;33.55;;;23.63;;
31760;SDS011;18335;51.486;7.562;2022-07-23T09:13:29;33.45;;;25.38;;
31760;SDS011;18335;51.486;7.562;2022-07-23T09:15:59;23.77;;;18.90;;
31760;SDS011;18335;51.486;7.562;2022-07-23T09:18:30;28.80;;;19.67;;
31760;SDS011;18335;51.486;7.562;2022-07-23T09:21:14;22.02;;;16.20;;
31760;SDS011;18335;51.486;7.562;2022-07-23T09:23:48;17.20;;;13.52;;
31760;SDS011;18335;51.486;7.562;2022-07-23T09:26:21;19.45;;;13.93;;
31760;SDS011;18335;51.486;7.562;2022-07-23T09:29:03;18.90;;;13.50;;
31760;SDS011;18335;51.486;7.562;2022-07-23T09:31:33;16.00;;;12.55;;
31760;SDS011;18335;51.486;7.562;2022-07-23T09:34:09;17.73;;;13.63;;
31760;SDS011;18335;51.486;7.562;2022-07-23T09:36:39;18.50;;;13.25;;
31760;SDS011;18335;51.486;7.562;2022-07-23T09:39:06;16.23;;;12.68;;
31760;SDS011;18335;51.486;7.562;2022-07-23T09:41:37;16.65;;;12.70;;
31760;SDS011;18335;51.486;7.562;2022-07-23T09:44:07;13.80;;;9.60;;
31760;SDS011;18335;51.486;7.562;2022-07-23T09:46:38;15.38;;;10.70;;
31760;SDS011;18335;51.486;7.562;2022-07-23T09:49:16;16.02;;;9.25;;
31760;SDS011;18335;51.486;7.562;2022-07-23T09:51:47;16.83;;;10.13;;
31760;SDS011;18335;51.486;7.562;2022-07-23T09:57:06;14.82;;;10.13;;
31760;SDS011;18335;51.486;7.562;2022-07-23T09:59:36;15.18;;;9.32;;
31760;SDS011;18335;51.486;7.562;2022-07-23T10:02:05;13.90;;;8.35;;
31760;SDS011;18335;51.486;7.562;2022-07-23T10:04:43;14.65;;;8.27;;
31760;SDS011;18335;51.486;7.562;2022-07-23T10:07:36;15.27;;;7.90;;
31760;SDS011;18335;51.486;7.562;2022-07-23T10:10:24;17.83;;;7.88;;
31760;SDS011;18335;51.486;7.562;2022-07-23T10:13:19;11.75;;;7.60;;
31760;SDS011;18335;51.486;7.562;2022-07-23T10:16:09;10.45;;;6.60;;
31760;SDS011;18335;51.486;7.562;2022-07-23T10:18:36;11.63;;;6.88;;
31760;SDS011;18335;51.486;7.562;2022-07-23T10:21:03;12.02;;;6.53;;
31760;SDS011;18335;51.486;7.562;2022-07-23T10:23:35;13.60;;;7.18;;
31760;SDS011;18335;51.486;7.562;2022-07-23T10:26:09;14.50;;;7.38;;
31760;SDS011;18335;51.486;7.562;2022-07-23T10:28:51;11.60;;;6.80;;
31760;SDS011;18335;51.486;7.562;2022-07-23T10:31:30;13.07;;;6.05;;
31760;SDS011;18335;51.486;7.562;2022-07-23T10:34:06;11.07;;;5.70;;
31760;SDS011;18335;51.486;7.562;2022-07-23T10:36:44;8.68;;;5.32;;
31760;SDS011;18335;51.486;7.562;2022-07-23T10:39:19;9.45;;;5.20;;
31760;SDS011;18335;51.486;7.562;2022-07-23T10:41:49;8.93;;;5.38;;
31760;SDS011;18335;51.486;7.562;2022-07-23T10:44:18;10.48;;;4.68;;
31760;SDS011;18335;51.486;7.562;2022-07-23T10:46:54;8.85;;;4.40;;
31760;SDS011;18335;51.486;7.562;2022-07-23T10:49:37;9.25;;;5.40;;
31760;SDS011;18335;51.486;7.562;2022-07-23T10:52:21;15.27;;;5.30;;
31760;SDS011;18335;51.486;7.562;2022-07-23T10:54:52;8.43;;;5.00;;
31760;SDS011;18335;51.486;7.562;2022-07-23T10:57:21;10.30;;;4.65;;
31760;SDS011;18335;51.486;7.562;2022-07-23T11:02:49;11.48;;;4.85;;
31760;SDS011;18335;51.486;7.562;2022-07-23T11:05:18;9.45;;;4.70;;
31760;SDS011;18335;51.486;7.562;2022-07-23T11:10:44;9.77;;;4.25;;
31760;SDS011;18335;51.486;7.562;2022-07-23T11:13:29;10.23;;;5.00;;
31760;SDS011;18335;51.486;7.562;2022-07-23T11:16:04;11.50;;;6.00;;
31760;SDS011;18335;51.486;7.562;2022-07-23T11:24:11;8.80;;;3.95;;
31760;SDS011;18335;51.486;7.562;2022-07-23T11:26:44;10.15;;;4.65;;
31760;SDS011;18335;51.486;7.562;2022-07-23T11:32:05;7.50;;;3.97;;
31760;SDS011;18335;51.486;7.562;2022-07-23T11:34:33;9.07;;;4.55;;
31760;SDS011;18335;51.486;7.562;2022-07-23T11:37:02;10.75;;;5.43;;
31760;SDS011;18335;51.486;7.562;2022-07-23T11:39:31;11.15;;;5.15;;
31760;SDS011;18335;51.486;7.562;2022-07-23T11:42:00;9.82;;;5.30;;
31760;SDS011;18335;51.486;7.562;2022-07-23T11:44:31;9.70;;;5.38;;
31760;SDS011;18335;51.486;7.562;2022-07-23T11:47:00;9.43;;;4.88;;
31760;SDS011;18335;51.486;7.562;2022-07-23T11:49:29;9.65;;;5.20;;
31760;SDS011;18335;51.486;7.562;2022-07-23T11:52:03;10.32;;;5.38;;
31760;SDS011;18335;51.486;7.562;2022-07-23T11:54:31;8.82;;;5.85;;
31760;SDS011;18335;51.486;7.562;2022-07-23T11:57:00;9.63;;;5.03;;
31760;SDS011;18335;51.486;7.562;2022-07-23T11:59:28;10.55;;;6.35;;
31760;SDS011;18335;51.486;7.562;2022-07-23T12:01:58;8.25;;;5.45;;
31760;SDS011;18335;51.486;7.562;2022-07-23T12:04:33;8.88;;;5.97;;
31760;SDS011;18335;51.486;7.562;2022-07-23T12:07:03;9.60;;;5.78;;
31760;SDS011;18335;51.486;7.562;2022-07-23T12:09:30;10.27;;;5.80;;
31760;SDS011;18335;51.486;7.562;2022-07-23T12:11:57;11.55;;;6.50;;
31760;SDS011;18335;51.486;7.562;2022-07-23T12:14:25;11.13;;;6.45;;
31760;SDS011;18335;51.486;7.562;2022-07-23T12:19:33;11.07;;;6.13;;
31760;SDS011;18335;51.486;7.562;2022-07-23T12:22:00;7.90;;;4.60;;
31760;SDS011;18335;51.486;7.562;2022-07-23T12:24:27;8.90;;;4.93;;
31760;SDS011;18335;51.486;7.562;2022-07-23T12:27:09;8.65;;;6.20;;
31760;SDS011;18335;51.486;7.562;2022-07-23T12:29:38;8.45;;;4.60;;
31760;SDS011;18335;51.486;7.562;2022-07-23T12:32:16;7.80;;;4.70;;
31760;SDS011;18335;51.486;7.562;2022-07-23T12:34:48;9.80;;;6.60;;
31760;SDS011;18335;51.486;7.562;2022-07-23T12:37:28;6.05;;;4.15;;
31760;SDS011;18335;51.486;7.562;2022-07-23T12:39:56;7.78;;;5.28;;
31760;SDS011;18335;51.486;7.562;2022-07-23T12:42:24;9.20;;;5.32;;
31760;SDS011;18335;51.486;7.562;2022-07-23T12:45:05;8.15;;;4.88;;
31760;SDS011;18335;51.486;7.562;2022-07-23T12:47:53;7.13;;;4.25;;
31760;SDS011;18335;51.486;7.562;2022-07-23T12:50:30;7.57;;;5.03;;
31760;SDS011;18335;51.486;7.562;2022-07-23T12:53:02;6.45;;;4.30;;
31760;SDS011;18335;51.486;7.562;2022-07-23T12:55:30;9.60;;;4.30;;
31760;SDS011;18335;51.486;7.562;2022-07-23T12:58:02;5.95;;;3.70;;
31760;SDS011;18335;51.486;7.562;2022-07-23T13:03:34;7.63;;;4.00;;
31760;SDS011;18335;51.486;7.562;2022-07-23T13:06:04;7.60;;;3.60;;
31760;SDS011;18335;51.486;7.562;2022-07-23T13:08:33;6.82;;;3.05;;
31760;SDS011;18335;51.486;7.562;2022-07-23T13:11:01;5.82;;;2.90;;
31760;SDS011;18335;51.486;7.562;2022-07-23T13:13:30;7.95;;;3.63;;
31760;SDS011;18335;51.486;7.562;2022-07-23T13:15:58;10.18;;;3.88;;
31760;SDS011;18335;51.486;7.562;2022-07-23T13:18:25;8.32;;;3.40;;
31760;SDS011;18335;51.486;7.562;2022-07-23T13:20:54;6.60;;;3.60;;
31760;SDS011;18335;51.486;7.562;2022-07-23T13:23:22;7.30;;;3.30;;
31760;SDS011;18335;51.486;7.562;2022-07-23T13:25:49;7.47;;;3.40;;
31760;SDS011;18335;51.486;7.562;2022-07-23T13:28:17;5.63;;;3.33;;
31760;SDS011;18335;51.486;7.562;2022-07-23T13:30:44;5.75;;;3.17;;
31760;SDS011;18335;51.486;7.562;2022-07-23T13:33:12;6.80;;;2.80;;
31760;SDS011;18335;51.486;7.562;2022-07-23T13:35:39;5.60;;;2.58;;
31760;SDS011;18335;51.486;7.562;2022-07-23T13:38:08;6.20;;;2.85;;
31760;SDS011;18335;51.486;7.562;2022-07-23T13:40:35;5.57;;;2.92;;
31760;SDS011;18335;51.486;7.562;2022-07-23T13:43:05;7.10;;;3.33;;
31760;SDS011;18335;51.486;7.562;2022-07-23T13:45:32;6.65;;;2.50;;
31760;SDS011;18335;51.486;7.562;2022-07-23T13:47:59;5.28;;;2.63;;
31760;SDS011;18335;51.486;7.562;2022-07-23T13:50:25;4.28;;;2.88;;
31760;SDS011;18335;51.486;7.562;2022-07-23T13:52:52;4.05;;;2.40;;
31760;SDS011;18335;51.486;7.562;2022-07-23T13:55:20;8.15;;;2.60;;
31760;SDS011;18335;51.486;7.562;2022-07-23T13:57:47;10.40;;;2.85;;
31760;SDS011;18335;51.486;7.562;2022-07-23T14:00:14;5.22;;;2.30;;
31760;SDS011;18335;51.486;7.562;2022-07-23T14:02:41;5.90;;;2.60;;
31760;SDS011;18335;51.486;7.562;2022-07-23T14:05:09;5.28;;;2.10;;
31760;SDS011;18335;51.486;7.562;2022-07-23T14:07:36;6.82;;;2.42;;
31760;SDS011;18335;51.486;7.562;2022-07-23T14:10:04;6.25;;;2.10;;
31760;SDS011;18335;51.486;7.562;2022-07-23T14:12:34;5.13;;;2.30;;
31760;SDS011;18335;51.486;7.562;2022-07-23T14:15:01;4.35;;;2.22;;
31760;SDS011;18335;51.486;7.562;2022-07-23T14:17:28;8.38;;;3.20;;
31760;SDS011;18335;51.486;7.562;2022-07-23T14:19:55;4.07;;;2.22;;
31760;SDS011;18335;51.486;7.562;2022-07-23T14:22:22;4.35;;;2.28;;
31760;SDS011;18335;51.486;7.562;2022-07-23T14:24:49;5.57;;;2.33;;
31760;SDS011;18335;51.486;7.562;2022-07-23T14:27:16;6.22;;;2.47;;
31760;SDS011;18335;51.486;7.562;2022-07-23T14:29:44;4.93;;;2.35;;
31760;SDS011;18335;51.486;7.562;2022-07-23T14:32:11;5.13;;;2.42;;
31760;SDS011;18335;51.486;7.562;2022-07-23T14:34:38;5.32;;;2.47;;
31760;SDS011;18335;51.486;7.562;2022-07-23T14:37:04;6.50;;;2.17;;
31760;SDS011;18335;51.486;7.562;2022-07-23T14:39:31;5.88;;;2.42;;
31760;SDS011;18335;51.486;7.562;2022-07-23T14:41:58;5.68;;;2.65;;
31760;SDS011;18335;51.486;7.562;2022-07-23T14:44:24;6.15;;;2.55;;
31760;SDS011;18335;51.486;7.562;2022-07-23T14:46:53;7.95;;;2.50;;
31760;SDS011;18335;51.486;7.562;2022-07-23T14:49:20;4.72;;;2.53;;
31760;SDS011;18335;51.486;7.562;2022-07-23T14:51:47;4.35;;;2.42;;
31760;SDS011;18335;51.486;7.562;2022-07-23T14:54:14;6.57;;;2.70;;
31760;SDS011;18335;51.486;7.562;2022-07-23T14:56:41;5.82;;;2.80;;
31760;SDS011;18335;51.486;7.562;2022-07-23T14:59:08;7.40;;;3.42;;
31760;SDS011;18335;51.486;7.562;2022-07-23T15:01:37;8.32;;;3.15;;